sensor_id;sensor_type;location;lat;lon;timestamp;P1;durP1;ratioP1;P2;durP2;ratioP2
4051;SDS011;2040;50.924;11.604;2024-02-15T00:00:39;0.63;;;0.63;;
4051;SDS011;2040;50.924;11.604;2024-02-15T00:03:05;0.60;;;0.60;;
4051;SDS011;2040;50.924;11.604;2024-02-15T00:05:38;2.20;;;0.80;;
4051;SDS011;2040;50.924;11.604;2024-02-15T00:08:04;1.80;;;1.20;;
4051;SDS011;2040;50.924;11.604;2024-02-15T00:10:29;0.60;;;0.60;;
4051;SDS011;2040;50.924;11.604;2024-02-15T00:12:55;0.60;;;0.60;;
4051;SDS011;2040;50.924;11.604;2024-02-15T00:15:20;0.73;;;0.60;;
4051;SDS011;2040;50.924;11.604;2024-02-15T00:17:46;0.60;;;0.60;;
4051;SDS011;2040;50.924;11.604;2024-02-15T00:20:12;1.00;;;0.70;;
4051;SDS011;2040;50.924;11.604;2024-02-15T00:22:38;0.63;;;0.50;;
4051;SDS011;2040;50.924;11.604;2024-02-15T00:25:07;1.17;;;0.70;;
4051;SDS011;2040;50.924;11.604;2024-02-15T00:27:34;0.67;;;0.63;;
4051;SDS011;2040;50.924;11.604;2024-02-15T00:30:00;0.53;;;0.50;;
4051;SDS011;2040;50.924;11.604;2024-02-15T00:32:28;0.63;;;0.63;;
4051;SDS011;2040;50.924;11.604;2024-02-15T00:34:54;0.87;;;0.70;;
4051;SDS011;2040;50.924;11.604;2024-02-15T00:37:20;0.90;;;0.73;;
4051;SDS011;2040;50.924;11.604;2024-02-15T00:39:46;0.50;;;0.50;;
4051;SDS011;2040;50.924;11.604;2024-02-15T00:42:11;1.60;;;0.97;;
4051;SDS011;2040;50.924;11.604;2024-02-15T00:44:37;2.67;;;0.90;;
4051;SDS011;2040;50.924;11.604;2024-02-15T00:47:02;0.70;;;0.70;;
4051;SDS011;2040;50.924;11.604;2024-02-15T00:49:28;1.10;;;0.77;;
4051;SDS011;2040;50.924;11.604;2024-02-15T00:51:53;0.70;;;0.70;;
4051;SDS011;2040;50.924;11.604;2024-02-15T00:54:19;0.90;;;0.90;;
4051;SDS011;2040;50.924;11.604;2024-02-15T00:56:44;1.43;;;0.90;;
4051;SDS011;2040;50.924;11.604;2024-02-15T00:59:10;0.80;;;0.70;;
4051;SDS011;2040;50.924;11.604;2024-02-15T01:01:36;1.10;;;0.77;;
4051;SDS011;2040;50.924;11.604;2024-02-15T01:04:05;0.80;;;0.70;;
4051;SDS011;2040;50.924;11.604;2024-02-15T01:06:31;0.70;;;0.70;;
4051;SDS011;2040;50.924;11.604;2024-02-15T01:08:57;0.77;;;0.77;;
4051;SDS011;2040;50.924;11.604;2024-02-15T01:11:26;0.83;;;0.63;;
4051;SDS011;2040;50.924;11.604;2024-02-15T01:13:53;0.80;;;0.80;;
4051;SDS011;2040;50.924;11.604;2024-02-15T01:16:19;0.60;;;0.60;;
4051;SDS011;2040;50.924;11.604;2024-02-15T01:18:46;0.60;;;0.50;;
4051;SDS011;2040;50.924;11.604;2024-02-15T01:21:12;0.60;;;0.60;;
4051;SDS011;2040;50.924;11.604;2024-02-15T01:23:38;0.90;;;0.80;;
4051;SDS011;2040;50.924;11.604;2024-02-15T01:26:03;0.70;;;0.70;;
4051;SDS011;2040;50.924;11.604;2024-02-15T01:28:30;0.70;;;0.70;;
4051;SDS011;2040;50.924;11.604;2024-02-15T01:30:55;0.50;;;0.50;;
4051;SDS011;2040;50.924;11.604;2024-02-15T01:33:21;0.70;;;0.70;;
4051;SDS011;2040;50.924;11.604;2024-02-15T01:35:47;0.63;;;0.60;;
4051;SDS011;2040;50.924;11.604;2024-02-15T01:38:13;0.63;;;0.63;;
4051;SDS011;2040;50.924;11.604;2024-02-15T01:40:39;0.53;;;0.53;;
4051;SDS011;2040;50.924;11.604;2024-02-15T01:43:04;0.70;;;0.60;;
4051;SDS011;2040;50.924;11.604;2024-02-15T01:45:30;0.60;;;0.60;;
4051;SDS011;2040;50.924;11.604;2024-02-15T01:47:56;0.57;;;0.57;;
4051;SDS011;2040;50.924;11.604;2024-02-15T01:50:22;0.60;;;0.60;;
4051;SDS011;2040;50.924;11.604;2024-02-15T01:52:51;0.80;;;0.80;;
4051;SDS011;2040;50.924;11.604;2024-02-15T01:55:19;1.00;;;0.60;;
4051;SDS011;2040;50.924;11.604;2024-02-15T01:57:45;0.70;;;0.70;;
4051;SDS011;2040;50.924;11.604;2024-02-15T02:00:12;0.60;;;0.60;;
4051;SDS011;2040;50.924;11.604;2024-02-15T02:02:38;2.93;;;0.80;;
4051;SDS011;2040;50.924;11.604;2024-02-15T02:05:06;0.80;;;0.80;;
4051;SDS011;2040;50.924;11.604;2024-02-15T02:07:32;0.80;;;0.70;;
4051;SDS011;2040;50.924;11.604;2024-02-15T02:09:58;0.60;;;0.60;;
4051;SDS011;2040;50.924;11.604;2024-02-15T02:12:24;1.10;;;0.90;;
4051;SDS011;2040;50.924;11.604;2024-02-15T02:14:52;0.97;;;0.60;;
4051;SDS011;2040;50.924;11.604;2024-02-15T02:17:18;1.20;;;0.90;;
4051;SDS011;2040;50.924;11.604;2024-02-15T02:19:45;0.80;;;0.80;;
4051;SDS011;2040;50.924;11.604;2024-02-15T02:22:11;0.70;;;0.70;;
4051;SDS011;2040;50.924;11.604;2024-02-15T02:24:57;1.37;;;0.80;;
4051;SDS011;2040;50.924;11.604;2024-02-15T02:27:27;0.67;;;0.67;;
4051;SDS011;2040;50.924;11.604;2024-02-15T02:29:54;0.60;;;0.60;;
4051;SDS011;2040;50.924;11.604;2024-02-15T02:32:21;0.80;;;0.80;;
4051;SDS011;2040;50.924;11.604;2024-02-15T02:34:46;1.00;;;0.90;;
4051;SDS011;2040;50.924;11.604;2024-02-15T02:37:12;0.70;;;0.70;;
4051;SDS011;2040;50.924;11.604;2024-02-15T02:39:38;0.60;;;0.60;;
4051;SDS011;2040;50.924;11.604;2024-02-15T02:42:04;2.50;;;0.70;;
4051;SDS011;2040;50.924;11.604;2024-02-15T02:44:30;0.67;;;0.67;;
4051;SDS011;2040;50.924;11.604;2024-02-15T02:46:55;0.60;;;0.60;;
4051;SDS011;2040;50.924;11.604;2024-02-15T02:49:21;0.50;;;0.50;;
4051;SDS011;2040;50.924;11.604;2024-02-15T02:51:46;0.70;;;0.60;;
4051;SDS011;2040;50.924;11.604;2024-02-15T02:54:12;0.97;;;0.77;;
4051;SDS011;2040;50.924;11.604;2024-02-15T02:56:40;3.70;;;0.70;;
4051;SDS011;2040;50.924;11.604;2024-02-15T02:59:05;1.17;;;0.70;;
4051;SDS011;2040;50.924;11.604;2024-02-15T03:01:32;0.60;;;0.60;;
4051;SDS011;2040;50.924;11.604;2024-02-15T03:03:58;0.87;;;0.80;;
4051;SDS011;2040;50.924;11.604;2024-02-15T03:06:24;0.50;;;0.50;;
4051;SDS011;2040;50.924;11.604;2024-02-15T03:08:52;0.63;;;0.63;;
4051;SDS011;2040;50.924;11.604;2024-02-15T03:11:21;0.60;;;0.60;;
4051;SDS011;2040;50.924;11.604;2024-02-15T03:13:47;0.60;;;0.60;;
4051;SDS011;2040;50.924;11.604;2024-02-15T03:16:13;0.80;;;0.60;;
4051;SDS011;2040;50.924;11.604;2024-02-15T03:18:39;0.80;;;0.63;;
4051;SDS011;2040;50.924;11.604;2024-02-15T03:21:06;0.60;;;0.60;;
4051;SDS011;2040;50.924;11.604;2024-02-15T03:23:31;1.17;;;0.53;;
4051;SDS011;2040;50.924;11.604;2024-02-15T03:25:58;0.60;;;0.60;;
4051;SDS011;2040;50.924;11.604;2024-02-15T03:28:24;1.43;;;0.80;;
4051;SDS011;2040;50.924;11.604;2024-02-15T03:30:49;0.60;;;0.60;;
4051;SDS011;2040;50.924;11.604;2024-02-15T03:33:15;0.90;;;0.70;;
4051;SDS011;2040;50.924;11.604;2024-02-15T03:35:41;0.70;;;0.70;;
4051;SDS011;2040;50.924;11.604;2024-02-15T03:38:07;0.63;;;0.60;;
4051;SDS011;2040;50.924;11.604;2024-02-15T03:40:32;0.70;;;0.63;;
4051;SDS011;2040;50.924;11.604;2024-02-15T03:42:58;0.73;;;0.60;;
4051;SDS011;2040;50.924;11.604;2024-02-15T03:45:24;0.73;;;0.73;;
4051;SDS011;2040;50.924;11.604;2024-02-15T03:47:53;1.00;;;0.93;;
4051;SDS011;2040;50.924;11.604;2024-02-15T03:50:20;0.60;;;0.60;;
4051;SDS011;2040;50.924;11.604;2024-02-15T03:52:49;0.60;;;0.60;;
4051;SDS011;2040;50.924;11.604;2024-02-15T03:55:15;0.53;;;0.53;;
4051;SDS011;2040;50.924;11.604;2024-02-15T03:57:41;5.23;;;0.80;;
4051;SDS011;2040;50.924;11.604;2024-02-15T04:00:08;1.00;;;0.83;;
4051;SDS011;2040;50.924;11.604;2024-02-15T04:02:39;0.70;;;0.70;;
4051;SDS011;2040;50.924;11.604;2024-02-15T04:05:08;0.60;;;0.60;;
4051;SDS011;2040;50.924;11.604;2024-02-15T04:07:36;0.47;;;0.47;;
4051;SDS011;2040;50.924;11.604;2024-02-15T04:10:02;0.70;;;0.70;;
4051;SDS011;2040;50.924;11.604;2024-02-15T04:12:28;0.90;;;0.80;;
4051;SDS011;2040;50.924;11.604;2024-02-15T04:14:54;0.70;;;0.70;;
4051;SDS011;2040;50.924;11.604;2024-02-15T04:17:19;0.70;;;0.70;;
4051;SDS011;2040;50.924;11.604;2024-02-15T04:19:46;0.73;;;0.73;;
4051;SDS011;2040;50.924;11.604;2024-02-15T04:22:13;0.70;;;0.70;;
4051;SDS011;2040;50.924;11.604;2024-02-15T04:24:41;1.73;;;1.30;;
4051;SDS011;2040;50.924;11.604;2024-02-15T04:27:07;1.73;;;1.40;;
4051;SDS011;2040;50.924;11.604;2024-02-15T04:29:33;1.17;;;0.93;;
4051;SDS011;2040;50.924;11.604;2024-02-15T04:31:59;4.80;;;2.43;;
4051;SDS011;2040;50.924;11.604;2024-02-15T04:34:25;2.80;;;1.17;;
4051;SDS011;2040;50.924;11.604;2024-02-15T04:36:51;0.73;;;0.60;;
4051;SDS011;2040;50.924;11.604;2024-02-15T04:39:20;0.80;;;0.80;;
4051;SDS011;2040;50.924;11.604;2024-02-15T04:41:50;0.73;;;0.73;;
4051;SDS011;2040;50.924;11.604;2024-02-15T04:44:16;1.27;;;0.77;;
4051;SDS011;2040;50.924;11.604;2024-02-15T04:46:45;1.00;;;0.73;;
4051;SDS011;2040;50.924;11.604;2024-02-15T04:49:14;0.90;;;0.80;;
4051;SDS011;2040;50.924;11.604;2024-02-15T04:51:40;0.70;;;0.70;;
4051;SDS011;2040;50.924;11.604;2024-02-15T04:54:09;8.67;;;0.87;;
4051;SDS011;2040;50.924;11.604;2024-02-15T04:56:39;0.70;;;0.70;;
4051;SDS011;2040;50.924;11.604;2024-02-15T04:59:05;0.70;;;0.53;;
4051;SDS011;2040;50.924;11.604;2024-02-15T05:01:40;0.70;;;0.70;;
4051;SDS011;2040;50.924;11.604;2024-02-15T05:04:08;1.13;;;0.80;;
4051;SDS011;2040;50.924;11.604;2024-02-15T05:06:34;0.80;;;0.80;;
4051;SDS011;2040;50.924;11.604;2024-02-15T05:09:01;1.17;;;0.70;;
4051;SDS011;2040;50.924;11.604;2024-02-15T05:11:32;4.43;;;1.37;;
4051;SDS011;2040;50.924;11.604;2024-02-15T05:14:00;1.10;;;1.00;;
4051;SDS011;2040;50.924;11.604;2024-02-15T05:16:26;2.70;;;1.27;;
4051;SDS011;2040;50.924;11.604;2024-02-15T05:18:52;1.33;;;1.23;;
4051;SDS011;2040;50.924;11.604;2024-02-15T05:21:18;1.00;;;0.90;;
4051;SDS011;2040;50.924;11.604;2024-02-15T05:23:44;1.00;;;0.77;;
4051;SDS011;2040;50.924;11.604;2024-02-15T05:26:11;1.83;;;1.30;;
4051;SDS011;2040;50.924;11.604;2024-02-15T05:28:37;1.87;;;1.00;;
4051;SDS011;2040;50.924;11.604;2024-02-15T05:33:36;1.13;;;0.80;;
4051;SDS011;2040;50.924;11.604;2024-02-15T05:36:05;1.87;;;1.20;;
4051;SDS011;2040;50.924;11.604;2024-02-15T05:38:32;2.07;;;1.40;;
4051;SDS011;2040;50.924;11.604;2024-02-15T05:40:58;2.20;;;1.20;;
4051;SDS011;2040;50.924;11.604;2024-02-15T05:43:23;1.67;;;1.47;;
4051;SDS011;2040;50.924;11.604;2024-02-15T05:45:50;1.20;;;1.10;;
4051;SDS011;2040;50.924;11.604;2024-02-15T05:48:17;1.50;;;1.40;;
4051;SDS011;2040;50.924;11.604;2024-02-15T05:50:43;1.47;;;1.30;;
4051;SDS011;2040;50.924;11.604;2024-02-15T05:53:08;1.20;;;1.10;;
4051;SDS011;2040;50.924;11.604;2024-02-15T05:55:34;1.20;;;1.03;;
4051;SDS011;2040;50.924;11.604;2024-02-15T05:58:01;1.17;;;1.07;;
4051;SDS011;2040;50.924;11.604;2024-02-15T06:00:27;1.10;;;1.00;;
4051;SDS011;2040;50.924;11.604;2024-02-15T06:02:54;6.30;;;1.00;;
4051;SDS011;2040;50.924;11.604;2024-02-15T06:05:20;1.20;;;0.97;;
4051;SDS011;2040;50.924;11.604;2024-02-15T06:07:46;0.90;;;0.90;;
4051;SDS011;2040;50.924;11.604;2024-02-15T06:10:12;1.70;;;1.60;;
4051;SDS011;2040;50.924;11.604;2024-02-15T06:12:39;3.03;;;1.40;;
4051;SDS011;2040;50.924;11.604;2024-02-15T06:15:06;1.23;;;1.13;;
4051;SDS011;2040;50.924;11.604;2024-02-15T06:17:39;1.80;;;1.30;;
4051;SDS011;2040;50.924;11.604;2024-02-15T06:20:06;1.30;;;1.20;;
4051;SDS011;2040;50.924;11.604;2024-02-15T06:22:32;1.50;;;1.40;;
4051;SDS011;2040;50.924;11.604;2024-02-15T06:24:58;5.10;;;1.30;;
4051;SDS011;2040;50.924;11.604;2024-02-15T06:27:23;2.00;;;1.50;;
4051;SDS011;2040;50.924;11.604;2024-02-15T06:29:50;2.40;;;1.83;;
4051;SDS011;2040;50.924;11.604;2024-02-15T06:32:34;3.03;;;1.77;;
4051;SDS011;2040;50.924;11.604;2024-02-15T06:35:18;3.13;;;1.50;;
4051;SDS011;2040;50.924;11.604;2024-02-15T06:38:02;2.73;;;1.73;;
4051;SDS011;2040;50.924;11.604;2024-02-15T06:40:47;2.20;;;1.77;;
4051;SDS011;2040;50.924;11.604;2024-02-15T06:43:12;1.33;;;1.20;;
4051;SDS011;2040;50.924;11.604;2024-02-15T06:45:39;3.53;;;2.10;;
4051;SDS011;2040;50.924;11.604;2024-02-15T06:48:09;2.40;;;1.70;;
4051;SDS011;2040;50.924;11.604;2024-02-15T06:50:35;2.37;;;1.20;;
4051;SDS011;2040;50.924;11.604;2024-02-15T06:53:02;1.40;;;1.30;;
4051;SDS011;2040;50.924;11.604;2024-02-15T06:55:28;3.77;;;1.80;;
4051;SDS011;2040;50.924;11.604;2024-02-15T06:57:53;6.00;;;2.67;;
4051;SDS011;2040;50.924;11.604;2024-02-15T07:00:20;3.20;;;1.63;;
4051;SDS011;2040;50.924;11.604;2024-02-15T07:02:45;2.90;;;1.73;;
4051;SDS011;2040;50.924;11.604;2024-02-15T07:05:13;3.67;;;2.27;;
4051;SDS011;2040;50.924;11.604;2024-02-15T07:07:39;2.20;;;1.50;;
4051;SDS011;2040;50.924;11.604;2024-02-15T07:10:07;2.60;;;1.57;;
4051;SDS011;2040;50.924;11.604;2024-02-15T07:12:38;1.37;;;1.27;;
4051;SDS011;2040;50.924;11.604;2024-02-15T07:15:04;3.27;;;1.10;;
4051;SDS011;2040;50.924;11.604;2024-02-15T07:17:31;2.13;;;1.50;;
4051;SDS011;2040;50.924;11.604;2024-02-15T07:19:57;1.40;;;1.10;;
4051;SDS011;2040;50.924;11.604;2024-02-15T07:22:23;3.90;;;1.43;;
4051;SDS011;2040;50.924;11.604;2024-02-15T07:24:49;4.93;;;1.83;;
4051;SDS011;2040;50.924;11.604;2024-02-15T07:27:14;2.47;;;1.40;;
4051;SDS011;2040;50.924;11.604;2024-02-15T07:29:40;1.20;;;1.10;;
4051;SDS011;2040;50.924;11.604;2024-02-15T07:32:06;3.33;;;1.40;;
4051;SDS011;2040;50.924;11.604;2024-02-15T07:34:33;1.90;;;1.60;;
4051;SDS011;2040;50.924;11.604;2024-02-15T07:36:59;1.20;;;1.10;;
4051;SDS011;2040;50.924;11.604;2024-02-15T07:39:27;2.00;;;1.70;;
4051;SDS011;2040;50.924;11.604;2024-02-15T07:41:56;1.40;;;1.30;;
4051;SDS011;2040;50.924;11.604;2024-02-15T07:44:25;1.20;;;1.10;;
4051;SDS011;2040;50.924;11.604;2024-02-15T07:46:52;2.10;;;1.70;;
4051;SDS011;2040;50.924;11.604;2024-02-15T07:49:18;2.87;;;1.50;;
4051;SDS011;2040;50.924;11.604;2024-02-15T07:51:43;1.73;;;1.50;;
4051;SDS011;2040;50.924;11.604;2024-02-15T07:54:09;4.23;;;2.37;;
4051;SDS011;2040;50.924;11.604;2024-02-15T07:56:35;2.10;;;1.27;;
4051;SDS011;2040;50.924;11.604;2024-02-15T07:59:01;6.50;;;2.03;;
4051;SDS011;2040;50.924;11.604;2024-02-15T08:01:27;2.27;;;1.60;;
4051;SDS011;2040;50.924;11.604;2024-02-15T08:03:55;1.40;;;1.30;;
4051;SDS011;2040;50.924;11.604;2024-02-15T08:06:21;1.33;;;1.23;;
4051;SDS011;2040;50.924;11.604;2024-02-15T08:08:50;3.27;;;1.77;;
4051;SDS011;2040;50.924;11.604;2024-02-15T08:11:17;3.57;;;2.07;;
4051;SDS011;2040;50.924;11.604;2024-02-15T08:13:44;2.37;;;2.00;;
4051;SDS011;2040;50.924;11.604;2024-02-15T08:16:15;7.60;;;1.97;;
4051;SDS011;2040;50.924;11.604;2024-02-15T08:18:42;1.97;;;1.50;;
4051;SDS011;2040;50.924;11.604;2024-02-15T08:21:09;2.00;;;1.50;;
4051;SDS011;2040;50.924;11.604;2024-02-15T08:23:35;4.63;;;1.80;;
4051;SDS011;2040;50.924;11.604;2024-02-15T08:26:01;3.63;;;1.23;;
4051;SDS011;2040;50.924;11.604;2024-02-15T08:28:27;3.00;;;1.60;;
4051;SDS011;2040;50.924;11.604;2024-02-15T08:30:54;7.07;;;2.10;;
4051;SDS011;2040;50.924;11.604;2024-02-15T08:33:23;3.37;;;1.30;;
4051;SDS011;2040;50.924;11.604;2024-02-15T08:35:49;6.40;;;1.57;;
4051;SDS011;2040;50.924;11.604;2024-02-15T08:38:15;1.80;;;1.63;;
4051;SDS011;2040;50.924;11.604;2024-02-15T08:40:41;2.10;;;1.43;;
4051;SDS011;2040;50.924;11.604;2024-02-15T08:43:06;1.77;;;1.53;;
4051;SDS011;2040;50.924;11.604;2024-02-15T08:45:32;2.87;;;1.20;;
4051;SDS011;2040;50.924;11.604;2024-02-15T08:47:57;1.73;;;1.47;;
4051;SDS011;2040;50.924;11.604;2024-02-15T08:50:23;1.53;;;1.43;;
4051;SDS011;2040;50.924;11.604;2024-02-15T08:52:49;1.40;;;1.30;;
4051;SDS011;2040;50.924;11.604;2024-02-15T08:55:15;2.20;;;1.30;;
4051;SDS011;2040;50.924;11.604;2024-02-15T08:57:42;1.30;;;1.20;;
4051;SDS011;2040;50.924;11.604;2024-02-15T09:00:09;1.33;;;1.00;;
4051;SDS011;2040;50.924;11.604;2024-02-15T09:02:45;1.97;;;1.20;;
4051;SDS011;2040;50.924;11.604;2024-02-15T09:05:11;2.27;;;1.00;;
4051;SDS011;2040;50.924;11.604;2024-02-15T09:07:39;1.40;;;1.30;;
4051;SDS011;2040;50.924;11.604;2024-02-15T09:10:06;1.77;;;1.27;;
4051;SDS011;2040;50.924;11.604;2024-02-15T09:12:34;2.00;;;1.20;;
4051;SDS011;2040;50.924;11.604;2024-02-15T09:15:02;1.47;;;1.30;;
4051;SDS011;2040;50.924;11.604;2024-02-15T09:17:28;1.30;;;1.20;;
4051;SDS011;2040;50.924;11.604;2024-02-15T09:19:57;7.20;;;1.80;;
4051;SDS011;2040;50.924;11.604;2024-02-15T09:22:23;1.97;;;1.23;;
4051;SDS011;2040;50.924;11.604;2024-02-15T09:24:49;1.13;;;1.00;;
4051;SDS011;2040;50.924;11.604;2024-02-15T09:27:14;2.50;;;1.57;;
4051;SDS011;2040;50.924;11.604;2024-02-15T09:29:40;1.87;;;1.67;;
4051;SDS011;2040;50.924;11.604;2024-02-15T09:32:06;1.13;;;1.03;;
4051;SDS011;2040;50.924;11.604;2024-02-15T09:34:32;4.53;;;1.90;;
4051;SDS011;2040;50.924;11.604;2024-02-15T09:36:58;2.30;;;1.53;;
4051;SDS011;2040;50.924;11.604;2024-02-15T09:39:23;1.60;;;1.50;;
4051;SDS011;2040;50.924;11.604;2024-02-15T09:41:49;2.80;;;1.83;;
4051;SDS011;2040;50.924;11.604;2024-02-15T09:44:23;1.80;;;1.27;;
4051;SDS011;2040;50.924;11.604;2024-02-15T09:46:53;3.27;;;1.93;;
4051;SDS011;2040;50.924;11.604;2024-02-15T09:49:36;1.80;;;1.30;;
4051;SDS011;2040;50.924;11.604;2024-02-15T09:52:04;2.10;;;1.40;;
4051;SDS011;2040;50.924;11.604;2024-02-15T09:54:36;3.40;;;1.40;;
4051;SDS011;2040;50.924;11.604;2024-02-15T09:57:05;3.73;;;1.10;;
4051;SDS011;2040;50.924;11.604;2024-02-15T09:59:31;1.80;;;1.27;;
4051;SDS011;2040;50.924;11.604;2024-02-15T10:02:01;2.27;;;1.37;;
4051;SDS011;2040;50.924;11.604;2024-02-15T10:04:27;1.77;;;1.17;;
4051;SDS011;2040;50.924;11.604;2024-02-15T10:06:53;1.50;;;1.20;;
4051;SDS011;2040;50.924;11.604;2024-02-15T10:11:54;1.73;;;1.20;;
4051;SDS011;2040;50.924;11.604;2024-02-15T10:14:21;2.97;;;1.47;;
4051;SDS011;2040;50.924;11.604;2024-02-15T10:16:47;2.50;;;1.40;;
4051;SDS011;2040;50.924;11.604;2024-02-15T10:19:13;1.60;;;1.20;;
4051;SDS011;2040;50.924;11.604;2024-02-15T10:21:40;1.57;;;1.27;;
4051;SDS011;2040;50.924;11.604;2024-02-15T10:24:06;3.10;;;1.50;;
4051;SDS011;2040;50.924;11.604;2024-02-15T10:26:33;1.80;;;1.40;;
4051;SDS011;2040;50.924;11.604;2024-02-15T10:29:10;2.67;;;1.23;;
4051;SDS011;2040;50.924;11.604;2024-02-15T10:31:37;1.27;;;1.00;;
4051;SDS011;2040;50.924;11.604;2024-02-15T10:34:06;1.13;;;1.00;;
4051;SDS011;2040;50.924;11.604;2024-02-15T10:36:33;3.57;;;1.57;;
4051;SDS011;2040;50.924;11.604;2024-02-15T10:39:11;2.37;;;1.50;;
4051;SDS011;2040;50.924;11.604;2024-02-15T10:41:49;1.80;;;1.27;;
4051;SDS011;2040;50.924;11.604;2024-02-15T10:44:16;1.63;;;1.03;;
4051;SDS011;2040;50.924;11.604;2024-02-15T10:46:47;8.20;;;1.40;;
4051;SDS011;2040;50.924;11.604;2024-02-15T10:49:20;1.30;;;0.90;;
4051;SDS011;2040;50.924;11.604;2024-02-15T10:51:56;1.13;;;1.00;;
4051;SDS011;2040;50.924;11.604;2024-02-15T10:57:28;1.13;;;1.00;;
4051;SDS011;2040;50.924;11.604;2024-02-15T10:59:58;1.07;;;1.00;;
4051;SDS011;2040;50.924;11.604;2024-02-15T11:03:19;1.20;;;1.00;;
4051;SDS011;2040;50.924;11.604;2024-02-15T11:05:39;2.50;;;1.00;;
4051;SDS011;2040;50.924;11.604;2024-02-15T11:08:07;1.87;;;1.20;;
4051;SDS011;2040;50.924;11.604;2024-02-15T11:10:37;4.17;;;1.30;;
4051;SDS011;2040;50.924;11.604;2024-02-15T11:13:04;1.70;;;1.27;;
4051;SDS011;2040;50.924;11.604;2024-02-15T11:18:02;1.90;;;1.53;;
4051;SDS011;2040;50.924;11.604;2024-02-15T11:22:59;3.50;;;1.33;;
4051;SDS011;2040;50.924;11.604;2024-02-15T11:25:36;1.20;;;1.03;;
4051;SDS011;2040;50.924;11.604;2024-02-15T11:30:47;1.27;;;1.17;;
4051;SDS011;2040;50.924;11.604;2024-02-15T11:33:29;1.27;;;1.17;;
4051;SDS011;2040;50.924;11.604;2024-02-15T11:36:05;0.70;;;0.70;;
4051;SDS011;2040;50.924;11.604;2024-02-15T11:38:35;2.30;;;1.10;;
4051;SDS011;2040;50.924;11.604;2024-02-15T11:41:04;1.20;;;0.77;;
4051;SDS011;2040;50.924;11.604;2024-02-15T11:46:12;1.27;;;0.90;;
4051;SDS011;2040;50.924;11.604;2024-02-15T11:48:38;2.33;;;1.00;;
4051;SDS011;2040;50.924;11.604;2024-02-15T11:51:04;1.80;;;1.20;;
4051;SDS011;2040;50.924;11.604;2024-02-15T11:53:32;1.20;;;0.90;;
4051;SDS011;2040;50.924;11.604;2024-02-15T11:56:01;1.43;;;0.80;;
4051;SDS011;2040;50.924;11.604;2024-02-15T11:58:27;3.33;;;1.00;;
4051;SDS011;2040;50.924;11.604;2024-02-15T12:01:11;2.27;;;1.07;;
4051;SDS011;2040;50.924;11.604;2024-02-15T12:03:55;1.63;;;1.00;;
4051;SDS011;2040;50.924;11.604;2024-02-15T12:06:40;2.40;;;1.10;;
4051;SDS011;2040;50.924;11.604;2024-02-15T12:09:24;4.73;;;1.13;;
4051;SDS011;2040;50.924;11.604;2024-02-15T12:12:11;1.53;;;0.90;;
4051;SDS011;2040;50.924;11.604;2024-02-15T12:15:01;2.67;;;1.50;;
4051;SDS011;2040;50.924;11.604;2024-02-15T12:17:46;1.07;;;1.03;;
4051;SDS011;2040;50.924;11.604;2024-02-15T12:20:31;1.20;;;1.07;;
4051;SDS011;2040;50.924;11.604;2024-02-15T12:22:57;1.10;;;1.00;;
4051;SDS011;2040;50.924;11.604;2024-02-15T12:25:25;1.90;;;1.10;;
4051;SDS011;2040;50.924;11.604;2024-02-15T12:27:52;1.77;;;1.10;;
4051;SDS011;2040;50.924;11.604;2024-02-15T12:30:19;1.13;;;1.03;;
4051;SDS011;2040;50.924;11.604;2024-02-15T12:32:46;2.10;;;1.77;;
4051;SDS011;2040;50.924;11.604;2024-02-15T12:35:16;2.20;;;1.47;;
4051;SDS011;2040;50.924;11.604;2024-02-15T12:37:46;1.27;;;1.17;;
4051;SDS011;2040;50.924;11.604;2024-02-15T12:40:13;1.33;;;1.03;;
4051;SDS011;2040;50.924;11.604;2024-02-15T12:42:42;1.30;;;1.10;;
4051;SDS011;2040;50.924;11.604;2024-02-15T12:45:15;1.30;;;1.20;;
4051;SDS011;2040;50.924;11.604;2024-02-15T12:47:44;2.33;;;2.10;;
4051;SDS011;2040;50.924;11.604;2024-02-15T12:50:14;1.57;;;1.20;;
4051;SDS011;2040;50.924;11.604;2024-02-15T12:52:41;1.37;;;1.27;;
4051;SDS011;2040;50.924;11.604;2024-02-15T12:55:15;2.40;;;1.67;;
4051;SDS011;2040;50.924;11.604;2024-02-15T12:57:50;5.70;;;1.67;;
4051;SDS011;2040;50.924;11.604;2024-02-15T13:00:20;2.97;;;1.43;;
4051;SDS011;2040;50.924;11.604;2024-02-15T13:03:01;2.73;;;1.60;;
4051;SDS011;2040;50.924;11.604;2024-02-15T13:05:28;3.03;;;1.33;;
4051;SDS011;2040;50.924;11.604;2024-02-15T13:07:55;1.93;;;1.60;;
4051;SDS011;2040;50.924;11.604;2024-02-15T13:10:27;2.20;;;1.77;;
4051;SDS011;2040;50.924;11.604;2024-02-15T13:12:54;1.53;;;1.40;;
4051;SDS011;2040;50.924;11.604;2024-02-15T13:15:20;2.20;;;1.73;;
4051;SDS011;2040;50.924;11.604;2024-02-15T13:17:51;2.00;;;1.40;;
4051;SDS011;2040;50.924;11.604;2024-02-15T13:20:18;2.03;;;1.50;;
4051;SDS011;2040;50.924;11.604;2024-02-15T13:22:57;1.87;;;1.30;;
4051;SDS011;2040;50.924;11.604;2024-02-15T13:25:56;2.73;;;1.60;;
4051;SDS011;2040;50.924;11.604;2024-02-15T13:28:22;1.80;;;1.70;;
4051;SDS011;2040;50.924;11.604;2024-02-15T13:30:49;2.80;;;1.60;;
4051;SDS011;2040;50.924;11.604;2024-02-15T13:33:18;5.10;;;2.00;;
4051;SDS011;2040;50.924;11.604;2024-02-15T13:35:45;5.80;;;1.93;;
4051;SDS011;2040;50.924;11.604;2024-02-15T13:38:11;3.00;;;1.80;;
4051;SDS011;2040;50.924;11.604;2024-02-15T13:40:39;3.60;;;2.10;;
4051;SDS011;2040;50.924;11.604;2024-02-15T13:43:05;2.03;;;1.70;;
4051;SDS011;2040;50.924;11.604;2024-02-15T13:45:32;4.33;;;1.90;;
4051;SDS011;2040;50.924;11.604;2024-02-15T13:48:04;2.33;;;1.27;;
4051;SDS011;2040;50.924;11.604;2024-02-15T13:50:32;3.00;;;1.60;;
4051;SDS011;2040;50.924;11.604;2024-02-15T13:52:58;7.23;;;2.00;;
4051;SDS011;2040;50.924;11.604;2024-02-15T13:55:24;2.50;;;1.70;;
4051;SDS011;2040;50.924;11.604;2024-02-15T13:57:50;2.30;;;1.93;;
4051;SDS011;2040;50.924;11.604;2024-02-15T14:00:17;4.73;;;2.13;;
4051;SDS011;2040;50.924;11.604;2024-02-15T14:02:50;2.60;;;2.40;;
4051;SDS011;2040;50.924;11.604;2024-02-15T14:05:18;7.23;;;2.03;;
4051;SDS011;2040;50.924;11.604;2024-02-15T14:07:49;2.23;;;1.20;;
4051;SDS011;2040;50.924;11.604;2024-02-15T14:10:17;2.70;;;1.90;;
4051;SDS011;2040;50.924;11.604;2024-02-15T14:12:49;3.83;;;1.33;;
4051;SDS011;2040;50.924;11.604;2024-02-15T14:15:30;4.33;;;1.90;;
4051;SDS011;2040;50.924;11.604;2024-02-15T14:18:02;1.63;;;1.50;;
4051;SDS011;2040;50.924;11.604;2024-02-15T14:20:31;4.03;;;2.03;;
4051;SDS011;2040;50.924;11.604;2024-02-15T14:22:57;3.60;;;1.90;;
4051;SDS011;2040;50.924;11.604;2024-02-15T14:25:23;2.27;;;1.63;;
4051;SDS011;2040;50.924;11.604;2024-02-15T14:27:50;1.90;;;1.53;;
4051;SDS011;2040;50.924;11.604;2024-02-15T14:30:17;9.63;;;2.00;;
4051;SDS011;2040;50.924;11.604;2024-02-15T14:33:02;3.77;;;2.03;;
4051;SDS011;2040;50.924;11.604;2024-02-15T14:35:34;2.57;;;1.60;;
4051;SDS011;2040;50.924;11.604;2024-02-15T14:38:07;1.43;;;1.30;;
4051;SDS011;2040;50.924;11.604;2024-02-15T14:40:38;3.80;;;1.77;;
4051;SDS011;2040;50.924;11.604;2024-02-15T14:43:05;3.63;;;1.87;;
4051;SDS011;2040;50.924;11.604;2024-02-15T14:45:39;3.27;;;1.87;;
4051;SDS011;2040;50.924;11.604;2024-02-15T14:48:08;2.03;;;1.60;;
4051;SDS011;2040;50.924;11.604;2024-02-15T14:50:35;1.60;;;1.50;;
4051;SDS011;2040;50.924;11.604;2024-02-15T14:53:04;6.37;;;2.07;;
4051;SDS011;2040;50.924;11.604;2024-02-15T14:55:32;2.90;;;1.70;;
4051;SDS011;2040;50.924;11.604;2024-02-15T14:57:59;1.60;;;1.50;;
4051;SDS011;2040;50.924;11.604;2024-02-15T15:00:24;2.33;;;1.63;;
4051;SDS011;2040;50.924;11.604;2024-02-15T15:02:52;3.20;;;1.83;;
4051;SDS011;2040;50.924;11.604;2024-02-15T15:05:21;5.47;;;1.67;;
4051;SDS011;2040;50.924;11.604;2024-02-15T15:08:06;2.70;;;1.30;;
4051;SDS011;2040;50.924;11.604;2024-02-15T15:10:50;2.20;;;1.60;;
4051;SDS011;2040;50.924;11.604;2024-02-15T15:13:35;1.30;;;1.20;;
4051;SDS011;2040;50.924;11.604;2024-02-15T15:16:01;6.97;;;1.57;;
4051;SDS011;2040;50.924;11.604;2024-02-15T15:18:28;1.70;;;1.30;;
4051;SDS011;2040;50.924;11.604;2024-02-15T15:20:56;4.30;;;1.67;;
4051;SDS011;2040;50.924;11.604;2024-02-15T15:23:22;3.17;;;1.87;;
4051;SDS011;2040;50.924;11.604;2024-02-15T15:25:47;4.80;;;1.87;;